Flight Track Log - Related Links

Times and Time Zones

All times are in EDT time to prevent confusion due to time zone crossing. See the NKS259 flight status page for this flight to view local times or setup timezone preferences in your user account.

Time Position Orientation Groundspeed Altitude Reporting Facility
EDT Latitude Longitude Course Direction KTS MPH feet Rate Location/Type
Mon 07:09:42 AM 39.4740 -74.6170 294° West 171 197 1,600  Level FlightAware ADS-B
Mon 07:09:57 AM 39.4790 -74.6320 293° West 183 211 2,100 2,571 Climbing FlightAware ADS-B
Mon 07:10:10 AM 39.4773 -74.6533 264° West 206 237 2,800 2,824 Climbing FlightAware ADS-B
Mon 07:10:14 AM 39.4758 -74.6568 241° Southwest 209 241 2,900 1,500 Climbing FlightAware ADS-B
Mon 07:10:18 AM 39.4730 -74.6612 230° Southwest 217 250 3,000 1,800 Climbing FlightAware ADS-B
Mon 07:10:24 AM 39.4686 -74.6663 222° Southwest 226 260 3,200 2,471 Climbing FlightAware ADS-B
Mon 07:10:35 AM 39.4582 -74.6753 214° Southwest 240 276 3,700 2,526 Climbing FlightAware ADS-B
Mon 07:10:43 AM 39.4500 -74.6821 213° Southwest 249 287 4,000 3,120 Climbing FlightAware ADS-B
Mon 07:11:00 AM 39.4343 -74.6949 212° Southwest 251 289 5,000 3,833 Climbing FlightAware ADS-B
Mon 07:11:19 AM 39.4157 -74.7108 213° Southwest 250 288 6,300 4,000 Climbing FlightAware ADS-B
Mon 07:11:33 AM 39.4024 -74.7220 213° Southwest 250 288 7,200 4,065 Climbing FlightAware ADS-B
Mon 07:11:50 AM 39.3857 -74.7361 213° Southwest 245 282 8,400 3,778 Climbing FlightAware ADS-B
Mon 07:12:27 AM 39.3507 -74.7654 213° Southwest 244 281 10,600 3,134 Climbing FlightAware ADS-B
Mon 07:12:57 AM 39.3208 -74.7911 214° Southwest 263 303 11,900 3,097 Climbing FlightAware ADS-B
Mon 07:13:29 AM 39.2888 -74.8177 213° Southwest 257 296 13,800 3,194 Climbing FlightAware ADS-B
Mon 07:13:59 AM 39.2580 -74.8427 212° Southwest 262 302 15,200 2,613 Climbing FlightAware ADS-B
Mon 07:14:31 AM 39.2254 -74.8696 213° Southwest 270 311 16,500 2,308 Climbing FlightAware ADS-B
Mon 07:15:04 AM 39.1900 -74.8988 213° Southwest 280 322 17,700 1,810 Climbing FlightAware ADS-B
Mon 07:15:34 AM 39.1556 -74.9271 213° Southwest 301 346 18,400 1,200 Climbing FlightAware ADS-B
Mon 07:16:04 AM 39.1187 -74.9576 213° Southwest 324 373 18,900 1,548 Climbing FlightAware ADS-B
Mon 07:16:36 AM 39.0785 -74.9905 212° Southwest 332 382 20,000 2,286 Climbing FlightAware ADS-B
Mon 07:17:07 AM 39.0376 -75.0239 212° Southwest 332 382 21,300 2,262 Climbing FlightAware ADS-B
Mon 07:17:37 AM 38.9985 -75.0560 213° Southwest 334 384 22,300 1,966 Climbing FlightAware ADS-B
Mon 07:18:05 AM 38.9619 -75.0859 212° Southwest 338 389 23,200 1,784 Climbing FlightAware ADS-B
Mon 07:18:14 AM 38.9502 -75.0942 209° Southwest 343 395 23,400 1,692 Climbing FlightAware ADS-B
Mon 07:18:44 AM 38.9068 -75.1219 206° Southwest 346 398 24,300 1,869 Climbing FlightAware ADS-B
Mon 07:19:15 AM 38.8629 -75.1503 207° Southwest 345 397 25,300 1,967 Climbing FlightAware ADS-B
Mon 07:19:45 AM 38.8199 -75.1780 207° Southwest 343 395 26,300 1,569 Climbing FlightAware ADS-B
Mon 07:20:20 AM 38.7695 -75.2105 207° Southwest 351 404 27,000 1,235 Climbing FlightAware ADS-B
Mon 07:20:53 AM 38.7218 -75.2411 207° Southwest 355 409 27,700 1,364 Climbing FlightAware ADS-B
Mon 07:21:26 AM 38.6726 -75.2728 207° Southwest 358 412 28,500 1,500 Climbing FlightAware ADS-B
Mon 07:21:57 AM 38.6272 -75.3018 207° Southwest 357 411 29,300 1,238 Climbing FlightAware ADS-B
Mon 07:22:29 AM 38.5795 -75.3324 207° Southwest 363 418 29,800 1,361 Climbing FlightAware ADS-B
Mon 07:23:34 AM 38.4818 -75.3947 207° Southwest 364 419 31,500 1,380 Climbing FlightAware ADS-B
Mon 07:24:09 AM 38.4303 -75.4274 206° Southwest 360 414 32,100 1,075 Climbing FlightAware ADS-B
Mon 07:24:41 AM 38.3829 -75.4576 207° Southwest 360 414 32,700 1,161 Climbing FlightAware ADS-B
Mon 07:25:11 AM 38.3374 -75.4864 206° Southwest 360 414 33,300 984 Climbing FlightAware ADS-B
Mon 07:25:42 AM 38.2908 -75.5160 207° Southwest 365 420 33,700 1,065 Climbing FlightAware ADS-B
Mon 07:26:13 AM 38.2446 -75.5453 206° Southwest 362 417 34,400 1,594 Climbing FlightAware ADS-B
Mon 07:26:46 AM 38.1963 -75.5759 206° Southwest 352 405 35,400 1,143 Climbing FlightAware ADS-B
Mon 07:27:16 AM 38.1520 -75.6041 207° Southwest 360 414 35,600 343 Climbing FlightAware ADS-B
Mon 07:27:56 AM 38.0910 -75.6429 207° Southwest 368 423 35,800 333 Climbing FlightAware ADS-B
Mon 07:28:28 AM 38.0425 -75.6732 206° Southwest 372 428 36,000 188 Climbing FlightAware ADS-B
Mon 07:29:00 AM 37.9935 -75.7039 206° Southwest 367 422 36,000  Level FlightAware ADS-B
Mon 07:29:32 AM 37.9444 -75.7346 206° Southwest 368 423 36,000  Level FlightAware ADS-B
Mon 07:30:03 AM 37.8973 -75.7639 206° Southwest 371 427 36,000  Level FlightAware ADS-B
Mon 07:30:34 AM 37.8499 -75.7936 206° Southwest 373 429 36,000  Level FlightAware ADS-B
Mon 07:31:05 AM 37.8016 -75.8238 206° Southwest 374 430 36,000  Level FlightAware ADS-B
Mon 07:31:36 AM 37.7529 -75.8543 206° Southwest 374 430 36,000  Level FlightAware ADS-B
Mon 07:32:37 AM 37.6650 -75.9100 207° Southwest 365 420 36,000  Level FlightAware ADS-B
Mon 07:32:58 AM 37.6270 -75.9331 206° Southwest 374 430 36,000  Level FlightAware ADS-B
Mon 07:33:33 AM 37.5735 -75.9661 206° Southwest 369 425 36,000  Level FlightAware ADS-B
Mon 07:34:04 AM 37.5258 -75.9955 206° Southwest 368 423 36,000  Level FlightAware ADS-B
Mon 07:34:35 AM 37.4779 -76.0252 206° Southwest 366 421 36,000  Level FlightAware ADS-B
Mon 07:35:06 AM 37.4312 -76.0541 206° Southwest 368 423 36,000  Level FlightAware ADS-B
Mon 07:35:37 AM 37.3848 -76.0824 206° Southwest 368 423 36,000  Level FlightAware ADS-B
Mon 07:36:11 AM 37.3321 -76.1148 206° Southwest 367 422 36,000  Level FlightAware ADS-B
Mon 07:36:43 AM 37.2838 -76.1447 206° Southwest 367 422 36,000  Level FlightAware ADS-B
Mon 07:37:13 AM 37.2373 -76.1733 206° Southwest 367 422 36,000  Level FlightAware ADS-B
Mon 07:37:44 AM 37.1901 -76.2022 206° Southwest 368 423 36,000  Level FlightAware ADS-B
Mon 07:38:17 AM 37.1411 -76.2328 206° Southwest 368 423 36,000  Level FlightAware ADS-B
Mon 07:38:48 AM 37.0931 -76.2623 206° Southwest 369 425 36,000  Level FlightAware ADS-B
Mon 07:39:22 AM 37.0440 -76.2920 206° Southwest 368 423 36,000  Level FlightAware ADS-B
Mon 07:40:07 AM 36.9710 -76.3160 195° South 399 459 36,000  Level FlightAware ADS-B
Mon 07:40:27 AM 36.9256 -76.3069 171° South 368 423 36,000  Level FlightAware ADS-B
Mon 07:41:27 AM 36.8390 -76.2380 148° Southeast 432 497 36,000  Level FlightAware ADS-B
Mon 07:41:32 AM 36.8300 -76.2270 136° Southeast 478 550 36,000  Level FlightAware ADS-B
Mon 07:42:17 AM 36.7650 -76.1460 135° Southeast 480 552 36,000  Level FlightAware ADS-B
Mon 07:43:07 AM 36.6830 -76.0470 136° Southeast 480 552 36,000  Level FlightAware ADS-B
Mon 07:44:07 AM 36.5770 -75.9440 142° Southeast 445 512 36,000  Level FlightAware ADS-B
Mon 07:44:57 AM 36.4830 -75.9010 160° South 429 494 36,000  Level FlightAware ADS-B
Mon 07:45:12 AM 36.4500 -75.9460 228° Southwest 355 409 36,000  Level FlightAware ADS-B
Mon 07:46:07 AM 36.3810 -76.0030 214° Southwest 348 400 36,000  Level FlightAware ADS-B
Mon 07:46:22 AM 36.3930 -76.0490 288° West 334 384 36,000  Level FlightAware ADS-B
Mon 07:46:27 AM 36.3910 -76.0610 258° West 337 388 36,000  Level FlightAware ADS-B
Mon 07:47:12 AM 36.3830 -76.1520 264° West 338 389 36,000  Level FlightAware ADS-B
Mon 07:47:57 AM 36.3740 -76.2410 263° West 340 391 36,000  Level FlightAware ADS-B
Mon 07:48:42 AM 36.3670 -76.3170 263° West 340 391 36,000  Level FlightAware ADS-B
Mon 07:49:02 AM 36.3420 -76.3570 232° Southwest 341 392 36,000  Level FlightAware ADS-B
Mon 07:49:47 AM 36.2890 -76.4020 214° Southwest 346 398 36,000  Level FlightAware ADS-B
Mon 07:50:42 AM 36.2100 -76.4660 213° Southwest 351 404 36,000  Level FlightAware ADS-B
Mon 07:51:32 AM 36.1520 -76.5120 213° Southwest 351 404 36,000  Level FlightAware ADS-B
Mon 07:52:02 AM 36.0960 -76.5530 211° Southwest 36,000  Level FlightAware ADS-B
Mon 07:52:47 AM 36.0440 -76.5940 213° Southwest 347 399 36,000  Level FlightAware ADS-B
Mon 07:53:32 AM 35.9870 -76.6370 211° Southwest 347 399 36,000  Level FlightAware ADS-B
Mon 07:54:12 AM 35.9410 -76.6730 212° Southwest 347 399 36,000  Level FlightAware ADS-B
Mon 07:55:02 AM 35.8830 -76.7180 212° Southwest 347 399 36,000  Level FlightAware ADS-B
Mon 07:55:42 AM 35.8370 -76.7540 212° Southwest 347 399 36,000  Level FlightAware ADS-B
Mon 07:56:22 AM 35.7900 -76.7890 211° Southwest 347 399 36,000  Level FlightAware ADS-B
Mon 07:57:02 AM 35.7440 -76.8250 212° Southwest 347 399 36,000  Level FlightAware ADS-B
Mon 07:57:42 AM 35.6980 -76.8600 212° Southwest 347 399 36,000  Level FlightAware ADS-B
Mon 08:01:07 AM 35.3320 -77.0950 208° Southwest 370 426 36,000  Level FlightAware ADS-B
Mon 08:01:47 AM 35.2770 -77.1170 198° South 370 426 36,000  Level FlightAware ADS-B
Mon 08:02:27 AM 35.2220 -77.1390 198° South 370 426 36,000  Level FlightAware ADS-B
Mon 08:03:07 AM 35.1660 -77.1610 198° South 370 426 36,000  Level FlightAware ADS-B
Mon 08:03:47 AM 35.1110 -77.1830 198° South 370 426 36,000  Level FlightAware ADS-B
Mon 08:04:37 AM 35.0420 -77.2100 198° South 370 426 36,000  Level FlightAware ADS-B
Mon 08:05:17 AM 34.9860 -77.2320 198° South 370 426 36,000  Level FlightAware ADS-B
Mon 08:05:57 AM 34.9310 -77.2540 198° South 370 426 36,000  Level FlightAware ADS-B
Mon 08:06:37 AM 34.8760 -77.2760 198° South 370 426 36,000  Level FlightAware ADS-B
Mon 08:07:17 AM 34.8200 -77.2980 198° South 370 426 36,000  Level FlightAware ADS-B
Mon 08:08:07 AM 34.7510 -77.3250 198° South 370 426 36,000  Level FlightAware ADS-B
Mon 08:08:37 AM 34.7100 -77.3420 199° South 370 426 36,000  Level FlightAware ADS-B
Mon 08:09:27 AM 34.6400 -77.3690 198° South 370 426 36,000  Level FlightAware ADS-B
Mon 08:10:07 AM 34.5850 -77.3910 198° South 370 426 36,000  Level FlightAware ADS-B
Mon 08:15:02 AM 33.9700 -77.6450 199° South 370 426 36,000  Level FlightAware ADS-B
Mon 08:15:47 AM 33.8970 -77.6740 198° South 372 428 36,000  Level FlightAware ADS-B
Mon 08:16:27 AM 33.8300 -77.7000 198° South 372 428 36,000  Level FlightAware ADS-B
Mon 08:17:12 AM 33.7520 -77.7310 198° South 373 429 36,000  Level FlightAware ADS-B
Mon 08:17:52 AM 33.6870 -77.7560 198° South 373 429 36,000  Level FlightAware ADS-B
Mon 08:18:32 AM 33.6230 -77.7820 199° South 373 429 36,000  Level FlightAware ADS-B
Mon 08:19:17 AM 33.6090 -77.7870 197° South 373 429 36,000  Level FlightAware ADS-B
Mon 08:19:57 AM 33.5530 -77.8090 198° South 373 429 36,000  Level FlightAware ADS-B
Mon 08:20:37 AM 33.4970 -77.8310 198° South 373 429 36,000  Level FlightAware ADS-B
Mon 08:21:17 AM 33.4410 -77.8520 197° South 373 429 36,000  Level FlightAware ADS-B
Mon 08:21:37 AM 33.6630 -77.7660 18° North 36,000  Level FlightAware ADS-B
Mon 08:22:07 AM 33.2650 -77.9220 198° South 382 440 36,000  Level FlightAware ADS-B
Mon 08:23:17 AM 33.1450 -77.9690 198° South 383 441 36,000  Level FlightAware ADS-B
Mon 08:24:12 AM 33.0590 -78.0020 198° South 384 442 36,000  Level FlightAware ADS-B
Mon 08:24:47 AM 33.0030 -78.0240 198° South 384 442 36,000  Level FlightAware ADS-B
Mon 08:25:32 AM 33.0590 -78.0020 18° North 36,000  Level FlightAware ADS-B
Mon 08:26:02 AM 32.8670 -78.0770 198° South 387 445 36,000  Level FlightAware ADS-B
Mon 08:26:47 AM 32.7890 -78.1060 197° South 386 444 36,000  Level FlightAware ADS-B
Mon 08:27:27 AM 32.7210 -78.1330 198° South 386 444 36,000  Level FlightAware ADS-B
Mon 08:28:07 AM 32.6540 -78.1580 197° South 385 443 36,000  Level FlightAware ADS-B
Mon 08:28:52 AM 32.5810 -78.1860 198° South 383 441 36,000  Level FlightAware ADS-B
Mon 08:29:32 AM 32.5110 -78.2130 198° South 383 441 36,000  Level FlightAware ADS-B
Mon 08:30:17 AM 32.4330 -78.2430 198° South 382 440 36,000  Level FlightAware ADS-B
Mon 08:30:52 AM 32.3750 -78.2650 198° South 381 438 36,000  Level FlightAware ADS-B
Mon 08:31:37 AM 32.3050 -78.2920 198° South 382 440 36,000  Level FlightAware ADS-B
Mon 08:32:22 AM 32.2230 -78.3230 198° South 382 440 36,000  Level FlightAware ADS-B
Mon 08:33:02 AM 32.1590 -78.3480 198° South 382 440 36,000  Level FlightAware ADS-B
Mon 08:33:42 AM 32.0910 -78.3740 198° South 382 440 36,000  Level FlightAware ADS-B
Mon 08:34:17 AM 32.0320 -78.3950 197° South 381 438 36,000  Level FlightAware ADS-B
Mon 08:35:07 AM 31.9600 -78.4210 197° South 381 438 36,000  Level FlightAware ADS-B
Mon 08:35:47 AM 31.9030 -78.4420 197° South 381 438 36,000  Level FlightAware ADS-B
Mon 08:36:27 AM 31.8450 -78.4620 196° South 381 438 36,000  Level FlightAware ADS-B
Mon 08:37:17 AM 31.7740 -78.4880 197° South 381 438 36,000  Level FlightAware ADS-B
Mon 08:37:57 AM 31.7160 -78.5090 197° South 381 438 36,000  Level FlightAware ADS-B
Mon 08:38:37 AM 31.6590 -78.5290 197° South 381 438 36,000  Level FlightAware ADS-B
Mon 08:39:17 AM 31.6020 -78.5500 197° South 381 438 36,000  Level FlightAware ADS-B
Mon 08:39:57 AM 31.5440 -78.5710 197° South 381 438 36,000  Level FlightAware ADS-B
Mon 08:40:37 AM 31.4870 -78.5910 197° South 381 438 36,000  Level FlightAware ADS-B
Mon 08:41:27 AM 31.4150 -78.6170 197° South 381 438 36,000  Level FlightAware ADS-B
Mon 08:42:07 AM 31.3580 -78.6370 197° South 381 438 36,000  Level FlightAware ADS-B
Mon 08:42:47 AM 31.3010 -78.6580 197° South 381 438 36,000  Level FlightAware ADS-B
Mon 08:43:27 AM 31.2430 -78.6780 196° South 381 438 36,000  Level FlightAware ADS-B
Mon 08:44:03 AM 31.0139 -78.7719 196° South 403 464 36,000  Level Jacksonville Center
Mon 08:45:03 AM 30.9131 -78.8128 199° South 403 464 36,000  Level Jacksonville Center
Mon 08:46:03 AM 30.8100 -78.8558 200° South 403 464 36,000  Level Jacksonville Center
Mon 08:47:03 AM 30.6986 -78.8944 197° South 403 464 36,000 -50 Level Jacksonville Center
Mon 08:48:03 AM 30.5911 -78.9328 197° South 403 464 35,900  Descending Jacksonville Center
Mon 08:50:45 AM 30.2825 -79.0317 195° South 410 472 36,000 27 Climbing Miami Center
Mon 08:51:45 AM 30.1717 -79.0608 193° South 436 502 36,000  Level Miami Center
Mon 08:52:45 AM 30.0503 -79.0869 191° South 435 501 36,000  Level Miami Center
Mon 08:53:45 AM 29.9453 -79.1303 200° South 430 495 36,000  Level Miami Center
Mon 08:54:45 AM 29.8322 -79.1567 191° South 425 489 36,000  Level Miami Center
Mon 08:55:45 AM 29.7172 -79.1828 191° South 420 483 36,000  Level Miami Center
Mon 08:56:45 AM 29.6061 -79.2164 195° South 419 482 36,000  Level Miami Center
Mon 08:57:45 AM 29.4931 -79.2425 191° South 412 474 36,000  Level Miami Center
Mon 08:58:45 AM 29.3758 -79.2683 191° South 412 474 36,000  Level Miami Center
Mon 08:59:45 AM 29.2608 -79.2944 191° South 418 481 36,000  Level Miami Center
Mon 09:00:45 AM 29.1536 -79.3300 196° South 417 480 36,000  Level Miami Center
Mon 09:01:45 AM 29.0344 -79.3511 189° South 417 480 36,000  Level Miami Center
Mon 09:07:17 AM 28.4020 -79.5090 189° South 427 491 36,000 16 Level FlightAware ADS-B
Mon 09:08:02 AM 28.3120 -79.5310 192° South 424 488 36,100  Climbing FlightAware ADS-B
Mon 09:08:42 AM 28.2350 -79.5500 192° South 424 488 36,000 -75 Descending FlightAware ADS-B
Mon 09:09:22 AM 28.1570 -79.5690 192° South 413 475 36,000  Level FlightAware ADS-B
Mon 09:10:07 AM 28.0730 -79.5900 192° South 412 474 36,000  Level FlightAware ADS-B
Mon 09:10:47 AM 27.9950 -79.6090 192° South 411 473 36,000  Level FlightAware ADS-B
Mon 09:11:32 AM 27.9060 -79.6300 192° South 420 483 36,000 -1,271 Level FlightAware ADS-B
Mon 09:12:12 AM 27.8280 -79.6500 193° South 437 503 34,200 -2,471 Descending FlightAware ADS-B
Mon 09:12:57 AM 27.7420 -79.6700 192° South 434 499 32,500 -2,329 Descending FlightAware ADS-B
Mon 09:13:37 AM 27.6610 -79.6900 192° South 431 496 30,900 -2,325 Descending FlightAware ADS-B
Mon 09:14:17 AM 27.5820 -79.7090 192° South 426 490 29,400 -2,188 Descending FlightAware ADS-B
Mon 09:15:02 AM 27.5000 -79.7280 192° South 417 480 27,800 -2,175 Descending FlightAware ADS-B
Mon 09:15:37 AM 27.4370 -79.7430 192° South 411 473 26,500 -2,250 Descending FlightAware ADS-B
Mon 09:16:22 AM 27.3520 -79.7640 192° South 397 457 24,800 -2,133 Descending FlightAware ADS-B
Mon 09:17:07 AM 27.2700 -79.7640 180° South 417 480 23,300 -2,118 Descending FlightAware ADS-B
Mon 09:17:47 AM 27.1940 -79.7400 164° South 403 464 21,800 -2,250 Descending FlightAware ADS-B
Mon 09:18:27 AM 27.1150 -79.7160 165° South 404 465 20,300 -2,200 Descending FlightAware ADS-B
Mon 09:19:17 AM 27.0280 -79.6900 165° South 396 456 18,500 -2,188 Descending FlightAware ADS-B
Mon 09:19:52 AM 26.9680 -79.6720 165° South 390 449 17,200 -2,025 Descending FlightAware ADS-B
Mon 09:20:37 AM 26.8900 -79.6480 165° South 376 433 15,800 -1,800 Descending FlightAware ADS-B
Mon 09:21:22 AM 26.8160 -79.6520 183° South 333 383 14,500 -1,650 Descending FlightAware ADS-B
Mon 09:21:57 AM 26.7660 -79.6760 203° Southwest 328 377 13,600 -1,553 Descending FlightAware ADS-B
Mon 09:22:47 AM 26.6980 -79.7080 203° Southwest 328 377 12,300 -1,533 Descending FlightAware ADS-B
Mon 09:23:27 AM 26.6440 -79.7340 203° Southwest 322 371 11,300 -1,575 Descending FlightAware ADS-B
Mon 09:24:07 AM 26.5870 -79.7610 203° Southwest 318 366 10,200 -1,624 Descending FlightAware ADS-B
Mon 09:24:52 AM 26.5260 -79.7900 203° Southwest 318 366 9,000 -1,629 Descending FlightAware ADS-B
Mon 09:25:17 AM 26.4920 -79.8060 203° Southwest 318 366 8,300 -1,200 Descending FlightAware ADS-B
Mon 09:25:47 AM 26.4540 -79.8240 203° Southwest 300 345 7,900 -400 Descending FlightAware ADS-B
Mon 09:26:17 AM 26.4150 -79.8420 202° Southwest 282 325 7,900  Level FlightAware ADS-B
Mon 09:26:42 AM 26.3850 -79.8570 204° Southwest 280 322 7,900  Level FlightAware ADS-B
Mon 09:26:57 AM 26.3690 -79.8710 218° Southwest 277 319 7,900  Level FlightAware ADS-B
Mon 09:27:22 AM 26.3460 -79.8930 221° Southwest 276 318 7,900  Level FlightAware ADS-B
Mon 09:27:37 AM 26.3320 -79.9070 222° Southwest 277 319 7,900  Level FlightAware ADS-B
Mon 09:28:07 AM 26.3040 -79.9340 221° Southwest 251 289 7,900 -300 Level FlightAware ADS-B
Mon 09:28:37 AM 26.2790 -79.9580 221° Southwest 233 268 7,600 -764 Descending FlightAware ADS-B
Mon 09:29:02 AM 26.2590 -79.9770 220° Southwest 230 265 7,200 -1,091 Descending FlightAware ADS-B
Mon 09:29:32 AM 26.2340 -80.0010 221° Southwest 231 266 6,600 -1,200 Descending FlightAware ADS-B
Mon 09:29:57 AM 26.2140 -80.0200 220° Southwest 231 266 6,100 -1,050 Descending FlightAware ADS-B
Mon 09:30:12 AM 26.1990 -80.0250 197° South 235 270 5,900 -267 Descending FlightAware ADS-B
Mon 09:30:42 AM 26.1650 -80.0150 165° South 245 282 5,900  Level FlightAware ADS-B
Mon 09:30:52 AM 26.1580 -80.0060 131° Southeast 246 283 5,900  Level FlightAware ADS-B
Mon 09:31:07 AM 26.1540 -79.9890 105° East 246 283 5,900 -667 Level FlightAware ADS-B
Mon 09:31:37 AM 26.1560 -79.9500 87° East 239 275 5,400 -1,067 Descending FlightAware ADS-B
Mon 09:31:52 AM 26.1570 -79.9320 86° East 240 276 5,100 -1,350 Descending FlightAware ADS-B
Mon 09:32:17 AM 26.1600 -79.9020 84° East 240 276 4,500 -1,333 Descending FlightAware ADS-B
Mon 09:32:37 AM 26.1610 -79.8770 87° East 237 273 4,100 -1,067 Descending FlightAware ADS-B
Mon 09:33:02 AM 26.1490 -79.8510 117° Southeast 224 258 3,700 -857 Descending FlightAware ADS-B
Mon 09:33:12 AM 26.1400 -79.8460 153° Southeast 218 251 3,600 -720 Descending FlightAware ADS-B
Mon 09:33:27 AM 26.1270 -79.8440 172° South 209 241 3,400 -667 Descending FlightAware ADS-B
Mon 09:33:57 AM 26.1020 -79.8550 202° Southwest 189 217 3,100 -700 Descending FlightAware ADS-B
Mon 09:34:27 AM 26.0910 -79.8790 243° Southwest 186 214 2,700 -982 Descending FlightAware ADS-B
Mon 09:34:52 AM 26.0810 -79.9020 244° Southwest 185 213 2,200 -1,050 Descending FlightAware ADS-B
Mon 09:35:07 AM 26.0770 -79.9160 252° West 184 212 2,000 -514 Descending FlightAware ADS-B
Mon 09:35:27 AM 26.0760 -79.9340 266° West 183 211 1,900 -109 Descending FlightAware ADS-B
Mon 09:36:02 AM 26.0760 -79.9650 270° West 184 212 1,900  Level FlightAware ADS-B
Mon 09:36:32 AM 26.0760 -79.9950 270° West 184 212 1,900  Level FlightAware ADS-B
Mon 09:36:57 AM 26.0760 -80.0200 270° West 180 207 1,900 -436 Level FlightAware ADS-B
Mon 09:37:27 AM 26.0760 -80.0440 270° West 159 183 1,500 -764 Descending FlightAware ADS-B
Mon 09:37:52 AM 26.0760 -80.0640 270° West 147 169 1,200 -750 Descending FlightAware ADS-B
Mon 09:38:07 AM 26.0760 -80.0750 270° West 144 166 1,000 -667 Descending FlightAware ADS-B
Mon 09:38:37 AM 26.0770 -80.0950 273° West 129 148 700 -700 Descending FlightAware ADS-B
Mon 09:39:07 AM 26.0770 -80.1150 270° West 130 150 300 -667 Descending FlightAware ADS-B
Mon 09:39:22 AM 26.0770 -80.1240 270° West 128 147 200 -150 Descending FlightAware ADS-B
Mon 09:39:47 AM 26.0770 -80.1400 270° West 128 147 200  Level FlightAware ADS-B
Mon 09:46:00 AM 26.0726 -80.1527 97° East  Level Estimated
Mon 09:47:00 AM 26.0726 -80.1527 99° East  Level Estimated

Login

Don't have an account? Register now (free) for customized features, flight alerts, and more!